Terminal Aerodrome Forecast
Issued by NWS

Home | Current Version | Previous Version | Text Only | Print | Product List | Glossary On
Versions: 1 2 3 4 5 6 7 8 9 10 11 12 13 14 15 16
364
FTUS43 KDTX 280520
TAFMBS
TAF
KMBS 280520Z 2806/2906 25014G22KT P6SM OVC030
      TEMPO 2806/2808 6SM -RA OVC025
     FM281000 25013KT P6SM SCT040
     FM281400 23013G20KT P6SM SCT100 BKN250
     FM282000 23007KT P6SM SCT060 OVC100
     FM290200 32005KT 6SM -SHRA OVC040=

USA.gov is the U.S. government's official web portal to all federal, state and local government web resources and services.